createdAt,value
2023-12-12T00:03:15.971Z,102233.91
2023-12-12T00:08:21.136Z,102274.31
2023-12-12T00:13:26.433Z,102245.03
2023-12-12T00:18:33.712Z,102258.88
2023-12-12T00:23:39.053Z,102294.16
2023-12-12T00:28:45.143Z,102300.22
2023-12-12T00:33:51.662Z,102277.00
2023-12-12T00:38:57.780Z,102316.59
2023-12-12T00:44:03.732Z,102268.38
2023-12-12T00:49:10.078Z,102301.03
2023-12-12T00:54:15.508Z,102269.16
2023-12-12T00:59:20.548Z,102268.25
2023-12-12T01:04:25.581Z,102302.66
2023-12-12T01:09:33.023Z,102347.44
2023-12-12T01:14:38.354Z,102273.41
2023-12-12T01:19:43.403Z,102263.09
2023-12-12T01:24:49.009Z,102270.81
2023-12-12T01:29:54.498Z,102295.78
2023-12-12T01:35:00.302Z,102275.06
2023-12-12T01:40:08.166Z,102304.34
2023-12-12T01:45:15.433Z,102302.63
2023-12-12T01:50:22.370Z,102355.09
2023-12-12T01:55:28.849Z,102322.34
2023-12-12T02:00:34.963Z,102325.78
2023-12-12T02:05:44.056Z,102362.81
2023-12-12T02:10:49.052Z,102361.09
2023-12-12T02:15:54.202Z,102329.25
2023-12-12T02:21:03.263Z,102317.16
2023-12-12T02:26:08.559Z,102311.13
2023-12-12T02:31:13.721Z,102304.19
2023-12-12T02:36:18.960Z,102323.16
2023-12-12T02:41:24.154Z,102305.97
2023-12-12T02:46:29.380Z,102295.63
2023-12-12T02:51:35.739Z,102289.56
2023-12-12T02:56:41.736Z,102269.72
2023-12-12T03:01:49.708Z,102271.34
2023-12-12T03:06:55.800Z,102264.41
2023-12-12T03:12:00.774Z,102251.50
2023-12-12T03:17:07.255Z,102238.59
2023-12-12T03:22:12.646Z,102242.88
2023-12-12T03:27:17.741Z,102220.44
2023-12-12T03:32:22.713Z,102226.44
2023-12-12T03:37:28.773Z,102203.16
2023-12-12T03:42:35.240Z,102202.31
2023-12-12T03:47:41.261Z,102197.19
2023-12-12T03:52:46.728Z,102195.47
2023-12-12T03:57:52.008Z,102203.28
2023-12-12T04:02:57.865Z,102192.94
2023-12-12T04:08:03.164Z,102174.78
2023-12-12T04:13:09.802Z,102169.53
2023-12-12T04:18:15.368Z,102188.53
2023-12-12T04:23:20.733Z,102173.88
2023-12-12T04:28:28.187Z,102143.72
2023-12-12T04:33:33.523Z,102159.25
2023-12-12T04:38:38.762Z,102140.34
2023-12-12T04:43:45.460Z,102149.84
2023-12-12T04:48:50.201Z,102116.16
2023-12-12T04:54:01.982Z,102108.53
2023-12-12T04:59:07.387Z,102118.00
2023-12-12T05:04:12.883Z,102107.75
2023-12-12T05:09:20.071Z,102106.03
2023-12-12T05:14:25.420Z,102091.41
2023-12-12T05:19:32.206Z,102089.50
2023-12-12T05:24:38.241Z,102080.91
2023-12-12T05:29:43.610Z,102052.50
2023-12-12T05:34:49.155Z,102056.84
2023-12-12T05:39:58.943Z,102047.38
2023-12-12T05:45:06.611Z,102035.41
2023-12-12T05:50:15.711Z,102032.88
2023-12-12T05:55:22.030Z,102033.72
2023-12-12T06:00:30.765Z,102026.00
2023-12-12T06:05:37.065Z,102004.47
2023-12-12T06:10:42.421Z,102007.03
2023-12-12T06:15:48.255Z,101995.84
2023-12-12T06:20:55.002Z,102002.72
2023-12-12T06:26:00.334Z,102003.63
2023-12-12T06:31:06.239Z,102026.00
2023-12-12T06:36:12.073Z,102005.31
2023-12-12T06:41:17.867Z,101999.28
2023-12-12T06:46:24.166Z,102011.34
2023-12-12T06:51:29.450Z,102000.13
2023-12-12T06:56:34.034Z,102002.66
2023-12-12T07:01:39.008Z,102003.56
2023-12-12T07:06:43.669Z,101991.53
2023-12-12T07:11:49.960Z,101987.31
2023-12-12T07:16:55.263Z,101976.94
2023-12-12T07:22:00.604Z,101978.66
2023-12-12T07:27:06.765Z,101982.09
2023-12-12T07:32:12.060Z,101986.38
2023-12-12T07:37:18.315Z,101975.13
2023-12-12T07:42:23.647Z,101989.00
2023-12-12T07:47:34.401Z,102001.06
2023-12-12T07:52:45.547Z,102001.13
2023-12-12T07:57:56.476Z,101983.97
2023-12-12T08:03:15.658Z,101984.00
2023-12-12T08:08:39.420Z,101991.72
2023-12-12T08:13:51.450Z,101984.88
2023-12-12T08:19:32.773Z,101983.97
2023-12-12T08:24:46.574Z,102055.34
2023-12-12T08:30:18.790Z,102015.78
2023-12-12T08:35:36.310Z,101988.22
2023-12-12T08:40:42.698Z,101985.69
2023-12-12T08:46:05.033Z,102008.09
2023-12-12T08:51:27.824Z,102002.03
2023-12-12T08:56:33.623Z,102002.03
2023-12-12T09:01:38.957Z,102016.63
2023-12-12T09:06:44.314Z,102025.22
2023-12-12T09:11:50.721Z,102050.22
2023-12-12T09:17:00.175Z,102033.88
2023-12-12T09:22:07.773Z,102032.09
2023-12-12T09:27:13.031Z,102041.59
2023-12-12T09:32:19.673Z,102037.25
2023-12-12T09:37:27.764Z,102040.66
2023-12-12T09:42:37.962Z,102054.41
2023-12-12T09:47:45.957Z,102038.97
2023-12-12T09:52:54.467Z,102039.78
2023-12-12T09:58:01.166Z,102036.31
2023-12-12T10:03:10.333Z,102044.06
2023-12-12T10:08:16.952Z,102055.28
2023-12-12T10:13:22.725Z,102035.50
2023-12-12T10:18:28.315Z,102089.75
2023-12-12T10:23:34.973Z,102038.13
2023-12-12T10:28:40.492Z,102045.03
2023-12-12T10:33:46.032Z,102047.59
2023-12-12T10:38:52.621Z,102065.63
2023-12-12T10:44:03.821Z,102052.72
2023-12-12T10:49:09.251Z,102058.72
2023-12-12T10:54:15.114Z,102069.06
2023-12-12T10:59:57.015Z,102077.69
2023-12-12T11:04:48.633Z,102083.81
2023-12-12T11:09:55.944Z,102132.81
2023-12-12T11:15:05.134Z,102099.25
2023-12-12T11:20:18.090Z,102119.91
2023-12-12T11:25:24.741Z,102119.03
2023-12-12T11:30:42.620Z,102122.47
2023-12-12T11:35:50.408Z,102112.22
2023-12-12T11:41:16.027Z,102117.38
2023-12-12T11:46:29.272Z,102121.66
2023-12-12T11:51:36.957Z,102102.78
2023-12-12T11:56:42.651Z,102108.81
2023-12-12T12:01:49.234Z,102105.41
2023-12-12T12:06:59.661Z,102176.84
2023-12-12T12:12:12.575Z,102124.38
2023-12-12T12:17:21.405Z,102132.97
2023-12-12T12:22:27.291Z,102135.56
2023-12-12T12:27:34.147Z,102153.66
2023-12-12T12:32:40.694Z,102118.44
2023-12-12T12:37:47.548Z,102116.72
2023-12-12T12:42:53.771Z,102098.66
2023-12-12T12:48:00.723Z,102103.81
2023-12-12T12:53:07.489Z,102169.25
2023-12-12T12:58:15.702Z,102133.06
2023-12-12T13:03:22.510Z,102121.06
2023-12-12T13:08:29.916Z,102161.34
2023-12-12T13:13:35.785Z,102165.59
2023-12-12T13:18:42.772Z,102127.78
2023-12-12T13:23:47.790Z,102143.25
2023-12-12T13:28:55.176Z,102176.03
2023-12-12T13:34:07.045Z,102150.13
2023-12-12T13:39:17.351Z,102182.00
2023-12-12T13:44:25.968Z,102156.13
2023-12-12T13:49:35.975Z,102153.53
2023-12-12T13:54:42.717Z,102148.34
2023-12-12T13:59:48.918Z,102156.97
2023-12-12T14:04:55.934Z,102184.50
2023-12-12T14:10:04.631Z,102237.00
2023-12-12T14:15:11.732Z,102154.34
2023-12-12T14:20:17.832Z,102158.66
2023-12-12T14:25:28.186Z,102150.91
2023-12-12T14:30:34.356Z,102142.31
2023-12-12T14:35:41.957Z,102179.31
2023-12-12T14:40:51.394Z,102137.16
2023-12-12T14:45:59.459Z,102144.84
2023-12-12T14:51:06.275Z,102133.63
2023-12-12T14:56:14.139Z,102133.66
2023-12-12T15:01:20.279Z,102159.47
2023-12-12T15:06:26.529Z,102156.00
2023-12-12T15:11:34.150Z,102151.66
2023-12-12T15:16:45.001Z,102160.25
2023-12-12T15:21:54.369Z,102151.63
2023-12-12T15:27:03.424Z,102180.06
2023-12-12T15:32:11.244Z,102179.16
2023-12-12T15:37:17.741Z,102127.47
2023-12-12T15:42:24.960Z,102138.63
2023-12-12T15:47:32.394Z,102168.78
2023-12-12T15:52:38.573Z,102139.50
2023-12-12T15:57:44.417Z,102134.31
2023-12-12T16:02:50.614Z,102155.00
2023-12-12T16:07:56.762Z,102171.38
2023-12-12T16:13:04.791Z,102145.50
2023-12-12T16:18:10.990Z,102151.53
2023-12-12T16:23:18.454Z,102134.34
2023-12-12T16:28:24.409Z,102138.63
2023-12-12T16:33:31.709Z,102139.50
2023-12-12T16:38:38.432Z,102185.13
2023-12-12T16:43:44.259Z,102136.84
2023-12-12T16:48:50.888Z,102138.56
2023-12-12T16:53:57.955Z,102139.41
2023-12-12T16:59:07.431Z,102132.50
2023-12-12T17:04:13.364Z,102139.41
2023-12-12T17:09:19.762Z,102171.25
2023-12-12T17:14:25.786Z,102160.91
2023-12-12T17:19:32.754Z,102202.22
2023-12-12T17:24:42.718Z,102122.97
2023-12-12T17:29:49.587Z,102154.00
2023-12-12T17:34:57.229Z,102161.78
2023-12-12T17:40:03.062Z,102143.69
2023-12-12T17:45:09.642Z,102173.81
2023-12-12T17:50:19.542Z,102138.47
2023-12-12T17:55:25.227Z,102134.16
2023-12-12T18:00:30.745Z,102145.31
2023-12-12T18:05:40.234Z,102179.72
2023-12-12T18:10:47.115Z,102136.66
2023-12-12T18:15:52.648Z,102164.25
2023-12-12T18:20:58.357Z,102138.41
2023-12-12T18:26:04.066Z,102149.66
2023-12-12T18:31:11.652Z,102175.53
2023-12-12T18:36:18.063Z,102119.56
2023-12-12T18:41:24.772Z,102149.69
2023-12-12T18:46:30.576Z,102112.69
2023-12-12T18:51:36.507Z,102112.59
2023-12-12T18:56:42.178Z,102146.16
2023-12-12T19:01:52.241Z,102108.91
2023-12-12T19:07:02.928Z,102123.53
2023-12-12T19:12:09.672Z,102105.50
2023-12-12T19:17:16.386Z,102090.09
2023-12-12T19:22:22.295Z,102098.66
2023-12-12T19:27:27.916Z,102105.59
2023-12-12T19:32:37.952Z,102105.59
2023-12-12T19:37:43.512Z,102102.19
2023-12-12T19:42:51.348Z,102111.69
2023-12-12T19:47:56.864Z,102116.88
2023-12-12T19:53:07.402Z,102101.38
2023-12-12T19:58:13.099Z,102093.63
2023-12-12T20:03:20.247Z,102088.50
2023-12-12T20:08:25.830Z,102093.50
2023-12-12T20:13:31.257Z,102093.50
2023-12-12T20:18:37.079Z,102109.94
2023-12-12T20:23:42.555Z,102099.63
2023-12-12T20:28:50.555Z,102091.03
2023-12-12T20:33:56.128Z,102093.63
2023-12-12T20:39:01.578Z,102089.31
2023-12-12T20:44:07.564Z,102135.88
2023-12-12T20:49:15.154Z,102084.88
2023-12-12T20:54:25.964Z,102098.63
2023-12-12T20:59:30.983Z,102091.84
2023-12-12T21:04:35.999Z,102102.19
2023-12-12T21:09:42.248Z,102094.44
2023-12-12T21:14:47.274Z,102097.88
2023-12-12T21:19:52.367Z,102096.78
2023-12-12T21:24:58.420Z,102100.19
2023-12-12T21:30:03.868Z,102094.19
2023-12-12T21:35:09.325Z,102106.22
2023-12-12T21:40:15.677Z,102102.03
2023-12-12T21:45:21.977Z,102088.28
2023-12-12T21:50:26.987Z,102109.75
2023-12-12T21:55:32.081Z,102152.88
2023-12-12T22:00:37.887Z,102126.16
2023-12-12T22:05:43.064Z,102135.59
2023-12-12T22:10:48.978Z,102179.50
2023-12-12T22:15:54.041Z,102197.56
2023-12-12T22:20:59.675Z,102190.63
2023-12-12T22:26:05.930Z,102169.03
2023-12-12T22:31:11.110Z,102172.50
2023-12-12T22:36:21.585Z,102170.72
2023-12-12T22:41:27.913Z,102217.25
2023-12-12T22:46:33.337Z,102189.72
2023-12-12T22:51:39.693Z,102175.94
2023-12-12T22:56:44.774Z,102191.44
2023-12-12T23:01:50.847Z,102220.78
2023-12-12T23:06:56.086Z,102188.03
2023-12-12T23:12:01.550Z,102233.44
2023-12-12T23:17:07.840Z,102201.56
2023-12-12T23:22:13.860Z,102198.03
2023-12-12T23:27:19.345Z,102195.47
2023-12-12T23:32:25.279Z,102191.22
2023-12-12T23:37:30.361Z,102198.06
2023-12-12T23:42:35.418Z,102192.94
2023-12-12T23:47:42.101Z,102195.53
2023-12-12T23:52:47.283Z,102192.09
2023-12-12T23:57:53.353Z,102191.19
